sensor_id;sensor_type;location;lat;lon;timestamp;pressure;altitude;pressure_sealevel;temperature;humidity
65190;BME280;51777;53.570;9.984;2022-11-04T00:01:46;99848.94;;;10.53;100.00
65190;BME280;51777;53.570;9.984;2022-11-04T00:04:14;99847.16;;;10.53;100.00
65190;BME280;51777;53.570;9.984;2022-11-04T00:06:39;99844.28;;;10.48;100.00
65190;BME280;51777;53.570;9.984;2022-11-04T00:09:10;99834.91;;;10.47;100.00
65190;BME280;51777;53.570;9.984;2022-11-04T00:11:36;99833.13;;;10.48;100.00
65190;BME280;51777;53.570;9.984;2022-11-04T00:14:20;99833.94;;;10.48;100.00
65190;BME280;51777;53.570;9.984;2022-11-04T00:16:45;99818.44;;;10.48;100.00
65190;BME280;51777;53.570;9.984;2022-11-04T00:19:40;99817.81;;;10.46;100.00
65190;BME280;51777;53.570;9.984;2022-11-04T00:22:24;99805.84;;;10.45;100.00
65190;BME280;51777;53.570;9.984;2022-11-04T00:25:09;99800.84;;;10.44;100.00
65190;BME280;51777;53.570;9.984;2022-11-04T00:28:01;99803.91;;;10.47;100.00
65190;BME280;51777;53.570;9.984;2022-11-04T00:30:45;99794.53;;;10.46;100.00
65190;BME280;51777;53.570;9.984;2022-11-04T00:33:11;99784.56;;;10.43;100.00
65190;BME280;51777;53.570;9.984;2022-11-04T00:35:56;99793.91;;;10.44;100.00
65190;BME280;51777;53.570;9.984;2022-11-04T00:38:24;99799.25;;;10.43;100.00
65190;BME280;51777;53.570;9.984;2022-11-04T00:40:50;99816.22;;;10.37;100.00
65190;BME280;51777;53.570;9.984;2022-11-04T00:43:15;99825.91;;;10.35;100.00
65190;BME280;51777;53.570;9.984;2022-11-04T00:45:41;99824.81;;;10.29;100.00
65190;BME280;51777;53.570;9.984;2022-11-04T00:48:07;99816.22;;;10.29;100.00
65190;BME280;51777;53.570;9.984;2022-11-04T00:50:33;99807.22;;;10.25;100.00
65190;BME280;51777;53.570;9.984;2022-11-04T00:52:59;99795.25;;;10.24;100.00
65190;BME280;51777;53.570;9.984;2022-11-04T00:55:24;99793.66;;;10.23;100.00
65190;BME280;51777;53.570;9.984;2022-11-04T00:57:50;99794.47;;;10.23;100.00
65190;BME280;51777;53.570;9.984;2022-11-04T01:00:15;99797.69;;;10.25;100.00
65190;BME280;51777;53.570;9.984;2022-11-04T01:02:41;99804.13;;;10.29;100.00
65190;BME280;51777;53.570;9.984;2022-11-04T01:05:07;99800.25;;;10.25;100.00
65190;BME280;51777;53.570;9.984;2022-11-04T01:07:32;99792.97;;;10.29;100.00
65190;BME280;51777;53.570;9.984;2022-11-04T01:09:58;99783.47;;;10.29;100.00
65190;BME280;51777;53.570;9.984;2022-11-04T01:12:23;99782.31;;;10.32;100.00
65190;BME280;51777;53.570;9.984;2022-11-04T01:14:49;99785.53;;;10.34;100.00
65190;BME280;51777;53.570;9.984;2022-11-04T01:17:15;99780.03;;;10.37;100.00
65190;BME280;51777;53.570;9.984;2022-11-04T01:19:41;99773.25;;;10.36;100.00
65190;BME280;51777;53.570;9.984;2022-11-04T01:22:06;99770.03;;;10.34;100.00
65190;BME280;51777;53.570;9.984;2022-11-04T01:24:32;99772.28;;;10.37;100.00
65190;BME280;51777;53.570;9.984;2022-11-04T01:26:57;99776.47;;;10.38;100.00
65190;BME280;51777;53.570;9.984;2022-11-04T01:29:23;99766.13;;;10.38;100.00
65190;BME280;51777;53.570;9.984;2022-11-04T01:31:48;99766.78;;;10.40;100.00
65190;BME280;51777;53.570;9.984;2022-11-04T01:34:14;99767.09;;;10.45;100.00
65190;BME280;51777;53.570;9.984;2022-11-04T01:36:39;99759.97;;;10.47;100.00
65190;BME280;51777;53.570;9.984;2022-11-04T01:39:04;99774.78;;;10.53;100.00
65190;BME280;51777;53.570;9.984;2022-11-04T01:41:31;99767.53;;;10.57;100.00
65190;BME280;51777;53.570;9.984;2022-11-04T01:44:02;99769.75;;;10.60;100.00
65190;BME280;51777;53.570;9.984;2022-11-04T01:49:01;99773.28;;;10.67;100.00
65190;BME280;51777;53.570;9.984;2022-11-04T01:51:28;99772.31;;;10.68;100.00
65190;BME280;51777;53.570;9.984;2022-11-04T01:53:56;99767.31;;;10.67;100.00
65190;BME280;51777;53.570;9.984;2022-11-04T01:56:22;99761.16;;;10.68;100.00
65190;BME280;51777;53.570;9.984;2022-11-04T01:58:52;99760.50;;;10.66;100.00
65190;BME280;51777;53.570;9.984;2022-11-04T02:01:19;99749.22;;;10.67;100.00
65190;BME280;51777;53.570;9.984;2022-11-04T02:03:55;99736.28;;;10.67;100.00
65190;BME280;51777;53.570;9.984;2022-11-04T02:06:42;99740.81;;;10.65;100.00
65190;BME280;51777;53.570;9.984;2022-11-04T02:09:07;99736.44;;;10.65;100.00
65190;BME280;51777;53.570;9.984;2022-11-04T02:11:33;99726.91;;;10.66;100.00
65190;BME280;51777;53.570;9.984;2022-11-04T02:14:16;99744.69;;;10.69;100.00
65190;BME280;51777;53.570;9.984;2022-11-04T02:16:44;99753.88;;;10.71;100.00
65190;BME280;51777;53.570;9.984;2022-11-04T02:19:39;99767.25;;;10.75;100.00
65190;BME280;51777;53.570;9.984;2022-11-04T02:22:35;99768.06;;;10.75;100.00
65190;BME280;51777;53.570;9.984;2022-11-04T02:30:20;99755.31;;;10.74;100.00
65190;BME280;51777;53.570;9.984;2022-11-04T02:46:02;99755.47;;;10.72;100.00
65190;BME280;51777;53.570;9.984;2022-11-04T02:48:39;99750.13;;;10.74;100.00
65190;BME280;51777;53.570;9.984;2022-11-04T02:51:14;99756.28;;;10.73;100.00
65190;BME280;51777;53.570;9.984;2022-11-04T02:54:05;99754.84;;;10.70;100.00
65190;BME280;51777;53.570;9.984;2022-11-04T02:56:37;99759.84;;;10.72;100.00
65190;BME280;51777;53.570;9.984;2022-11-04T02:59:10;99764.22;;;10.71;100.00
65190;BME280;51777;53.570;9.984;2022-11-04T03:01:40;99766.63;;;10.73;100.00
65190;BME280;51777;53.570;9.984;2022-11-04T03:04:11;99771.63;;;10.74;100.00
65190;BME280;51777;53.570;9.984;2022-11-04T03:06:39;99776.44;;;10.77;100.00
65190;BME280;51777;53.570;9.984;2022-11-04T03:09:07;99773.69;;;10.79;100.00
65190;BME280;51777;53.570;9.984;2022-11-04T03:11:35;99766.75;;;10.79;100.00
65190;BME280;51777;53.570;9.984;2022-11-04T03:14:08;99754.09;;;10.84;100.00
65190;BME280;51777;53.570;9.984;2022-11-04T03:16:40;99746.19;;;10.86;100.00
65190;BME280;51777;53.570;9.984;2022-11-04T03:19:15;99745.19;;;10.87;100.00
65190;BME280;51777;53.570;9.984;2022-11-04T03:21:52;99751.81;;;10.89;100.00
65190;BME280;51777;53.570;9.984;2022-11-04T03:24:18;99747.28;;;10.92;100.00
65190;BME280;51777;53.570;9.984;2022-11-04T03:26:50;99738.06;;;10.89;100.00
65190;BME280;51777;53.570;9.984;2022-11-04T03:34:30;99769.41;;;10.94;100.00
65190;BME280;51777;53.570;9.984;2022-11-04T03:36:56;99776.19;;;10.95;100.00
65190;BME280;51777;53.570;9.984;2022-11-04T03:39:22;99780.38;;;10.96;100.00
65190;BME280;51777;53.570;9.984;2022-11-04T03:41:59;99777.44;;;10.99;100.00
65190;BME280;51777;53.570;9.984;2022-11-04T03:44:27;99767.72;;;11.01;100.00
65190;BME280;51777;53.570;9.984;2022-11-04T03:46:53;99773.09;;;11.00;100.00
65190;BME280;51777;53.570;9.984;2022-11-04T03:49:20;99767.09;;;10.99;100.00
65190;BME280;51777;53.570;9.984;2022-11-04T03:51:47;99763.19;;;11.03;100.00
65190;BME280;51777;53.570;9.984;2022-11-04T03:54:13;99750.59;;;11.00;100.00
65190;BME280;51777;53.570;9.984;2022-11-04T03:57:01;99770.94;;;11.03;100.00
65190;BME280;51777;53.570;9.984;2022-11-04T04:05:29;99773.38;;;11.05;100.00
65190;BME280;51777;53.570;9.984;2022-11-04T04:16:09;99779.66;;;11.10;100.00
65190;BME280;51777;53.570;9.984;2022-11-04T04:19:29;99789.00;;;11.11;100.00
65190;BME280;51777;53.570;9.984;2022-11-04T04:21:52;99796.41;;;11.14;100.00
65190;BME280;51777;53.570;9.984;2022-11-04T04:24:22;99791.25;;;11.14;100.00
65190;BME280;51777;53.570;9.984;2022-11-04T04:27:08;99797.97;;;11.24;100.00
65190;BME280;51777;53.570;9.984;2022-11-04T04:29:53;99796.66;;;11.28;100.00
65190;BME280;51777;53.570;9.984;2022-11-04T04:32:21;99800.88;;;11.29;100.00
65190;BME280;51777;53.570;9.984;2022-11-04T04:34:48;99817.19;;;11.29;100.00
65190;BME280;51777;53.570;9.984;2022-11-04T04:37:18;99818.47;;;11.33;100.00
65190;BME280;51777;53.570;9.984;2022-11-04T04:39:49;99826.69;;;11.37;100.00
65190;BME280;51777;53.570;9.984;2022-11-04T04:42:35;99830.88;;;11.38;100.00
65190;BME280;51777;53.570;9.984;2022-11-04T04:45:41;99840.06;;;11.40;100.00
65190;BME280;51777;53.570;9.984;2022-11-04T04:48:10;99839.78;;;11.35;100.00
65190;BME280;51777;53.570;9.984;2022-11-04T04:50:43;99843.00;;;11.37;100.00
65190;BME280;51777;53.570;9.984;2022-11-04T04:53:09;99842.84;;;11.39;100.00
65190;BME280;51777;53.570;9.984;2022-11-04T04:55:35;99865.16;;;11.40;100.00
65190;BME280;51777;53.570;9.984;2022-11-04T04:58:00;99864.34;;;11.39;100.00
65190;BME280;51777;53.570;9.984;2022-11-04T05:00:26;99859.16;;;11.39;100.00
65190;BME280;51777;53.570;9.984;2022-11-04T05:02:51;99858.84;;;11.42;100.00
65190;BME280;51777;53.570;9.984;2022-11-04T05:05:17;99869.81;;;11.44;100.00
65190;BME280;51777;53.570;9.984;2022-11-04T05:07:43;99872.59;;;11.43;100.00
65190;BME280;51777;53.570;9.984;2022-11-04T05:10:11;99877.09;;;11.41;100.00
65190;BME280;51777;53.570;9.984;2022-11-04T05:12:38;99885.53;;;11.43;100.00
65190;BME280;51777;53.570;9.984;2022-11-04T05:15:23;99882.28;;;11.41;100.00
65190;BME280;51777;53.570;9.984;2022-11-04T05:17:53;99895.22;;;11.41;100.00
65190;BME280;51777;53.570;9.984;2022-11-04T05:20:19;99900.41;;;11.41;100.00
65190;BME280;51777;53.570;9.984;2022-11-04T05:22:44;99897.66;;;11.42;100.00
65190;BME280;51777;53.570;9.984;2022-11-04T05:25:10;99901.06;;;11.43;100.00
65190;BME280;51777;53.570;9.984;2022-11-04T05:27:35;99908.81;;;11.43;100.00
65190;BME280;51777;53.570;9.984;2022-11-04T05:30:00;99898.66;;;11.41;100.00
65190;BME280;51777;53.570;9.984;2022-11-04T05:32:28;99907.03;;;11.43;100.00
65190;BME280;51777;53.570;9.984;2022-11-04T05:34:54;99921.59;;;11.44;100.00
65190;BME280;51777;53.570;9.984;2022-11-04T05:37:19;99916.91;;;11.40;100.00
65190;BME280;51777;53.570;9.984;2022-11-04T05:39:45;99917.59;;;11.34;100.00
65190;BME280;51777;53.570;9.984;2022-11-04T05:42:10;99921.19;;;11.33;100.00
65190;BME280;51777;53.570;9.984;2022-11-04T05:44:35;99926.19;;;11.34;100.00
65190;BME280;51777;53.570;9.984;2022-11-04T05:47:01;99928.75;;;11.34;100.00
65190;BME280;51777;53.570;9.984;2022-11-04T05:49:26;99930.56;;;11.34;100.00
65190;BME280;51777;53.570;9.984;2022-11-04T05:51:51;99933.81;;;11.28;100.00
65190;BME280;51777;53.570;9.984;2022-11-04T05:54:17;99936.25;;;11.29;100.00
65190;BME280;51777;53.570;9.984;2022-11-04T05:56:42;99931.56;;;11.25;100.00
65190;BME280;51777;53.570;9.984;2022-11-04T05:59:07;99939.31;;;11.25;100.00
65190;BME280;51777;53.570;9.984;2022-11-04T06:01:35;99943.53;;;11.26;100.00
65190;BME280;51777;53.570;9.984;2022-11-04T06:04:01;99954.50;;;11.28;100.00
65190;BME280;51777;53.570;9.984;2022-11-04T06:06:30;99955.47;;;11.27;100.00
65190;BME280;51777;53.570;9.984;2022-11-04T06:08:57;99964.22;;;11.26;100.00
65190;BME280;51777;53.570;9.984;2022-11-04T06:11:23;99974.91;;;11.23;100.00
65190;BME280;51777;53.570;9.984;2022-11-04T06:13:49;99973.84;;;11.40;100.00
65190;BME280;51777;53.570;9.984;2022-11-04T06:16:15;99978.19;;;11.47;100.00
65190;BME280;51777;53.570;9.984;2022-11-04T06:18:40;99961.81;;;11.55;100.00
65190;BME280;51777;53.570;9.984;2022-11-04T06:23:38;99983.53;;;11.46;100.00
65190;BME280;51777;53.570;9.984;2022-11-04T06:26:03;99983.91;;;11.43;100.00
65190;BME280;51777;53.570;9.984;2022-11-04T06:28:29;99985.56;;;11.28;100.00
65190;BME280;51777;53.570;9.984;2022-11-04T06:30:59;99988.19;;;11.20;100.00
65190;BME280;51777;53.570;9.984;2022-11-04T06:33:25;99997.25;;;11.15;100.00
65190;BME280;51777;53.570;9.984;2022-11-04T06:35:50;100006.31;;;11.11;100.00
65190;BME280;51777;53.570;9.984;2022-11-04T06:38:16;100013.47;;;11.09;100.00
65190;BME280;51777;53.570;9.984;2022-11-04T06:40:41;99997.78;;;11.03;100.00
65190;BME280;51777;53.570;9.984;2022-11-04T06:43:06;99999.72;;;11.01;100.00
65190;BME280;51777;53.570;9.984;2022-11-04T06:45:32;100004.09;;;11.00;100.00
65190;BME280;51777;53.570;9.984;2022-11-04T06:47:57;100001.56;;;10.92;100.00
65190;BME280;51777;53.570;9.984;2022-11-04T06:50:22;100007.03;;;10.89;100.00
65190;BME280;51777;53.570;9.984;2022-11-04T06:52:48;100008.00;;;10.88;100.00
65190;BME280;51777;53.570;9.984;2022-11-04T06:55:13;100014.78;;;10.89;100.00
65190;BME280;51777;53.570;9.984;2022-11-04T06:57:38;100014.16;;;10.87;100.00
65190;BME280;51777;53.570;9.984;2022-11-04T07:00:04;100013.81;;;10.90;100.00
65190;BME280;51777;53.570;9.984;2022-11-04T07:02:30;100015.44;;;10.91;100.00
65190;BME280;51777;53.570;9.984;2022-11-04T07:04:55;100019.00;;;10.90;100.00
65190;BME280;51777;53.570;9.984;2022-11-04T07:07:21;100032.25;;;10.95;100.00
65190;BME280;51777;53.570;9.984;2022-11-04T07:09:46;100038.69;;;10.99;100.00
65190;BME280;51777;53.570;9.984;2022-11-04T07:12:11;100041.91;;;11.01;100.00
65190;BME280;51777;53.570;9.984;2022-11-04T07:14:37;100044.84;;;11.06;100.00
65190;BME280;51777;53.570;9.984;2022-11-04T07:17:02;100049.03;;;11.07;100.00
65190;BME280;51777;53.570;9.984;2022-11-04T07:19:28;100046.91;;;11.11;100.00
65190;BME280;51777;53.570;9.984;2022-11-04T07:22:00;100066.63;;;11.12;100.00
65190;BME280;51777;53.570;9.984;2022-11-04T07:24:25;100066.81;;;11.10;100.00
65190;BME280;51777;53.570;9.984;2022-11-04T07:26:53;100072.31;;;11.07;100.00
65190;BME280;51777;53.570;9.984;2022-11-04T07:29:19;100068.44;;;11.03;100.00
65190;BME280;51777;53.570;9.984;2022-11-04T07:31:44;100077.03;;;11.04;100.00
65190;BME280;51777;53.570;9.984;2022-11-04T07:34:10;100080.25;;;10.98;100.00
65190;BME280;51777;53.570;9.984;2022-11-04T07:36:35;100088.81;;;10.98;100.00
65190;BME280;51777;53.570;9.984;2022-11-04T07:39:00;100094.63;;;11.00;100.00
65190;BME280;51777;53.570;9.984;2022-11-04T07:41:26;100096.88;;;11.03;100.00
65190;BME280;51777;53.570;9.984;2022-11-04T07:43:51;100099.34;;;11.05;100.00
65190;BME280;51777;53.570;9.984;2022-11-04T07:46:19;100112.75;;;11.00;100.00
65190;BME280;51777;53.570;9.984;2022-11-04T07:48:44;100110.16;;;11.08;100.00
65190;BME280;51777;53.570;9.984;2022-11-04T07:51:12;100106.59;;;11.09;100.00
65190;BME280;51777;53.570;9.984;2022-11-04T07:53:40;100106.91;;;11.14;100.00
65190;BME280;51777;53.570;9.984;2022-11-04T07:56:07;100098.03;;;11.17;100.00
65190;BME280;51777;53.570;9.984;2022-11-04T07:58:36;100097.84;;;11.18;100.00
65190;BME280;51777;53.570;9.984;2022-11-04T08:01:04;100106.88;;;11.23;100.00
65190;BME280;51777;53.570;9.984;2022-11-04T08:03:32;100098.78;;;11.26;100.00
65190;BME280;51777;53.570;9.984;2022-11-04T08:05:59;100116.09;;;11.25;100.00
65190;BME280;51777;53.570;9.984;2022-11-04T08:08:26;100136.16;;;11.31;100.00
65190;BME280;51777;53.570;9.984;2022-11-04T08:10:58;100130.47;;;11.28;100.00
65190;BME280;51777;53.570;9.984;2022-11-04T08:13:28;100118.50;;;11.35;100.00
65190;BME280;51777;53.570;9.984;2022-11-04T08:15:54;100123.69;;;11.43;100.00
65190;BME280;51777;53.570;9.984;2022-11-04T08:18:20;100131.72;;;11.56;100.00
65190;BME280;51777;53.570;9.984;2022-11-04T08:20:50;100138.84;;;11.54;100.00
65190;BME280;51777;53.570;9.984;2022-11-04T08:23:16;100144.03;;;11.54;100.00
65190;BME280;51777;53.570;9.984;2022-11-04T08:25:42;100131.09;;;11.54;100.00
65190;BME280;51777;53.570;9.984;2022-11-04T08:28:09;100138.97;;;11.61;100.00
65190;BME280;51777;53.570;9.984;2022-11-04T08:31:10;100133.00;;;11.60;100.00
65190;BME280;51777;53.570;9.984;2022-11-04T08:33:35;100139.16;;;11.59;100.00
65190;BME280;51777;53.570;9.984;2022-11-04T08:36:06;100135.25;;;11.63;100.00
65190;BME280;51777;53.570;9.984;2022-11-04T08:38:33;100143.66;;;11.65;100.00
65190;BME280;51777;53.570;9.984;2022-11-04T08:41:03;100149.00;;;11.64;100.00
65190;BME280;51777;53.570;9.984;2022-11-04T08:43:29;100141.22;;;11.72;100.00
65190;BME280;51777;53.570;9.984;2022-11-04T08:45:55;100148.47;;;11.85;100.00
65190;BME280;51777;53.570;9.984;2022-11-04T08:48:22;100150.25;;;11.76;100.00
65190;BME280;51777;53.570;9.984;2022-11-04T08:50:52;100147.22;;;11.81;100.00
65190;BME280;51777;53.570;9.984;2022-11-04T08:53:18;100154.81;;;11.82;100.00
65190;BME280;51777;53.570;9.984;2022-11-04T08:55:44;100157.34;;;11.90;100.00
65190;BME280;51777;53.570;9.984;2022-11-04T08:58:09;100158.31;;;11.89;100.00
65190;BME280;51777;53.570;9.984;2022-11-04T09:00:34;100157.56;;;11.81;100.00
65190;BME280;51777;53.570;9.984;2022-11-04T09:03:00;100158.50;;;11.88;100.00
65190;BME280;51777;53.570;9.984;2022-11-04T09:05:27;100149.97;;;11.79;100.00
65190;BME280;51777;53.570;9.984;2022-11-04T09:07:53;100156.91;;;11.79;100.00
65190;BME280;51777;53.570;9.984;2022-11-04T09:10:19;100161.13;;;11.80;100.00
65190;BME280;51777;53.570;9.984;2022-11-04T09:12:45;100166.28;;;11.88;100.00
65190;BME280;51777;53.570;9.984;2022-11-04T09:15:11;100168.19;;;11.94;100.00
65190;BME280;51777;53.570;9.984;2022-11-04T09:17:36;100179.81;;;12.06;100.00
65190;BME280;51777;53.570;9.984;2022-11-04T09:20:03;100172.88;;;11.98;100.00
65190;BME280;51777;53.570;9.984;2022-11-04T09:22:29;100181.44;;;12.07;100.00
65190;BME280;51777;53.570;9.984;2022-11-04T09:24:55;100180.75;;;12.13;100.00
65190;BME280;51777;53.570;9.984;2022-11-04T09:27:21;100189.28;;;12.22;100.00
65190;BME280;51777;53.570;9.984;2022-11-04T09:29:46;100195.44;;;12.21;100.00
65190;BME280;51777;53.570;9.984;2022-11-04T09:32:11;100205.72;;;12.06;100.00
65190;BME280;51777;53.570;9.984;2022-11-04T09:34:37;100200.59;;;11.90;100.00
65190;BME280;51777;53.570;9.984;2022-11-04T09:37:02;100204.19;;;11.72;100.00
65190;BME280;51777;53.570;9.984;2022-11-04T09:39:27;100194.97;;;11.70;100.00
65190;BME280;51777;53.570;9.984;2022-11-04T09:42:05;100202.41;;;11.73;100.00
65190;BME280;51777;53.570;9.984;2022-11-04T09:47:26;100212.94;;;11.80;100.00
65190;BME280;51777;53.570;9.984;2022-11-04T09:49:54;100201.25;;;11.84;100.00
65190;BME280;51777;53.570;9.984;2022-11-04T09:52:30;100213.53;;;11.90;100.00
65190;BME280;51777;53.570;9.984;2022-11-04T09:55:02;100226.41;;;12.14;100.00
65190;BME280;51777;53.570;9.984;2022-11-04T09:57:30;100237.34;;;12.41;100.00
65190;BME280;51777;53.570;9.984;2022-11-04T09:59:57;100237.13;;;12.73;100.00
65190;BME280;51777;53.570;9.984;2022-11-04T10:11:05;100245.41;;;12.07;100.00
65190;BME280;51777;53.570;9.984;2022-11-04T10:19:03;100235.28;;;11.81;100.00
65190;BME280;51777;53.570;9.984;2022-11-04T10:21:45;100233.16;;;11.84;100.00
65190;BME280;51777;53.570;9.984;2022-11-04T10:24:35;100226.16;;;11.76;100.00
65190;BME280;51777;53.570;9.984;2022-11-04T10:27:07;100220.00;;;11.77;100.00
65190;BME280;51777;53.570;9.984;2022-11-04T10:29:41;100217.78;;;11.83;100.00
65190;BME280;51777;53.570;9.984;2022-11-04T10:32:17;100226.47;;;11.98;100.00
65190;BME280;51777;53.570;9.984;2022-11-04T10:34:55;100218.34;;;12.09;100.00
65190;BME280;51777;53.570;9.984;2022-11-04T10:37:23;100222.31;;;12.28;100.00
65190;BME280;51777;53.570;9.984;2022-11-04T10:39:52;100218.06;;;12.35;100.00
65190;BME280;51777;53.570;9.984;2022-11-04T10:42:20;100218.53;;;12.39;100.00
65190;BME280;51777;53.570;9.984;2022-11-04T10:44:50;100212.09;;;12.26;100.00
65190;BME280;51777;53.570;9.984;2022-11-04T10:52:35;100212.31;;;12.48;100.00
65190;BME280;51777;53.570;9.984;2022-11-04T10:55:04;100209.28;;;12.44;100.00
65190;BME280;51777;53.570;9.984;2022-11-04T10:57:35;100221.69;;;12.57;100.00
65190;BME280;51777;53.570;9.984;2022-11-04T11:00:03;100221.56;;;12.73;100.00
65190;BME280;51777;53.570;9.984;2022-11-04T11:05:22;100235.06;;;12.69;100.00
65190;BME280;51777;53.570;9.984;2022-11-04T11:07:53;100235.34;;;12.74;100.00
65190;BME280;51777;53.570;9.984;2022-11-04T11:13:02;100243.44;;;13.02;100.00
65190;BME280;51777;53.570;9.984;2022-11-04T11:15:38;100244.41;;;13.01;100.00
65190;BME280;51777;53.570;9.984;2022-11-04T11:18:17;100255.00;;;13.14;100.00
65190;BME280;51777;53.570;9.984;2022-11-04T11:20:49;100253.81;;;13.02;100.00
65190;BME280;51777;53.570;9.984;2022-11-04T11:23:35;100264.19;;;13.02;100.00
65190;BME280;51777;53.570;9.984;2022-11-04T11:26:03;100267.19;;;13.13;100.00
65190;BME280;51777;53.570;9.984;2022-11-04T11:28:30;100286.50;;;13.19;100.00
65190;BME280;51777;53.570;9.984;2022-11-04T11:31:06;100298.75;;;13.02;100.00
65190;BME280;51777;53.570;9.984;2022-11-04T11:33:39;100296.72;;;13.12;100.00
65190;BME280;51777;53.570;9.984;2022-11-04T11:36:08;100292.81;;;13.39;100.00
65190;BME280;51777;53.570;9.984;2022-11-04T11:41:19;100301.13;;;13.58;100.00
65190;BME280;51777;53.570;9.984;2022-11-04T11:43:52;100294.13;;;13.58;100.00
65190;BME280;51777;53.570;9.984;2022-11-04T11:46:22;100299.97;;;13.75;100.00
65190;BME280;51777;53.570;9.984;2022-11-04T11:48:53;100306.28;;;13.95;100.00
65190;BME280;51777;53.570;9.984;2022-11-04T11:51:25;100309.38;;;13.76;100.00
65190;BME280;51777;53.570;9.984;2022-11-04T11:54:25;100307.47;;;14.07;100.00
65190;BME280;51777;53.570;9.984;2022-11-04T11:56:55;100306.84;;;14.35;100.00
65190;BME280;51777;53.570;9.984;2022-11-04T12:02:28;100301.09;;;14.25;98.57
65190;BME280;51777;53.570;9.984;2022-11-04T12:04:57;100296.34;;;13.84;100.00
65190;BME280;51777;53.570;9.984;2022-11-04T12:10:04;100294.78;;;13.75;100.00
65190;BME280;51777;53.570;9.984;2022-11-04T12:15:08;100304.59;;;14.17;100.00
65190;BME280;51777;53.570;9.984;2022-11-04T12:23:17;100306.44;;;13.64;100.00
65190;BME280;51777;53.570;9.984;2022-11-04T12:45:42;100322.25;;;13.92;97.78
65190;BME280;51777;53.570;9.984;2022-11-04T12:48:47;100329.91;;;13.71;98.43
65190;BME280;51777;53.570;9.984;2022-11-04T12:56:35;100335.81;;;14.02;97.26
65190;BME280;51777;53.570;9.984;2022-11-04T13:01:41;100337.06;;;14.21;97.99
65190;BME280;51777;53.570;9.984;2022-11-04T13:04:13;100345.84;;;14.35;96.91
65190;BME280;51777;53.570;9.984;2022-11-04T13:06:51;100351.16;;;14.56;95.01
65190;BME280;51777;53.570;9.984;2022-11-04T13:09:43;100352.78;;;14.28;92.95
65190;BME280;51777;53.570;9.984;2022-11-04T13:12:13;100351.47;;;13.94;95.73
65190;BME280;51777;53.570;9.984;2022-11-04T13:14:51;100350.84;;;13.92;97.25
65190;BME280;51777;53.570;9.984;2022-11-04T13:17:25;100354.13;;;13.86;97.04
65190;BME280;51777;53.570;9.984;2022-11-04T13:19:52;100347.69;;;13.82;97.25
65190;BME280;51777;53.570;9.984;2022-11-04T13:22:30;100352.03;;;14.04;96.65
65190;BME280;51777;53.570;9.984;2022-11-04T13:27:54;100360.03;;;13.80;97.59
65190;BME280;51777;53.570;9.984;2022-11-04T13:30:39;100368.94;;;13.63;98.86
65190;BME280;51777;53.570;9.984;2022-11-04T13:39:04;100382.00;;;13.55;100.00
65190;BME280;51777;53.570;9.984;2022-11-04T13:44:38;100386.09;;;13.72;100.00
65190;BME280;51777;53.570;9.984;2022-11-04T13:47:35;100404.44;;;13.93;100.00
65190;BME280;51777;53.570;9.984;2022-11-04T13:49:58;100406.19;;;14.16;98.99
65190;BME280;51777;53.570;9.984;2022-11-04T13:52:29;100403.50;;;14.24;99.44
65190;BME280;51777;53.570;9.984;2022-11-04T13:54:57;100417.03;;;14.04;99.18
65190;BME280;51777;53.570;9.984;2022-11-04T13:57:26;100412.91;;;13.87;98.57
65190;BME280;51777;53.570;9.984;2022-11-04T14:02:43;100423.16;;;13.43;100.00
65190;BME280;51777;53.570;9.984;2022-11-04T14:18:31;100437.72;;;13.21;100.00
65190;BME280;51777;53.570;9.984;2022-11-04T14:23:36;100438.06;;;13.02;100.00
65190;BME280;51777;53.570;9.984;2022-11-04T14:26:08;100443.59;;;12.99;100.00
65190;BME280;51777;53.570;9.984;2022-11-04T14:28:35;100446.84;;;13.01;100.00
65190;BME280;51777;53.570;9.984;2022-11-04T14:31:04;100448.34;;;12.95;100.00
65190;BME280;51777;53.570;9.984;2022-11-04T14:33:49;100453.38;;;12.88;100.00
65190;BME280;51777;53.570;9.984;2022-11-04T14:36:25;100452.91;;;12.77;100.00
65190;BME280;51777;53.570;9.984;2022-11-04T14:38:53;100454.56;;;12.78;100.00
65190;BME280;51777;53.570;9.984;2022-11-04T14:44:13;100456.00;;;12.80;100.00
65190;BME280;51777;53.570;9.984;2022-11-04T14:46:47;100456.13;;;12.87;100.00
65190;BME280;51777;53.570;9.984;2022-11-04T14:49:43;100462.63;;;12.91;100.00
65190;BME280;51777;53.570;9.984;2022-11-04T14:52:23;100469.91;;;12.96;100.00
65190;BME280;51777;53.570;9.984;2022-11-04T14:55:35;100464.72;;;12.96;100.00
65190;BME280;51777;53.570;9.984;2022-11-04T14:57:47;100466.66;;;12.93;100.00
65190;BME280;51777;53.570;9.984;2022-11-04T15:00:38;100476.25;;;12.93;100.00
65190;BME280;51777;53.570;9.984;2022-11-04T15:05:57;100467.59;;;13.09;100.00
65190;BME280;51777;53.570;9.984;2022-11-04T15:08:27;100472.44;;;13.12;100.00
65190;BME280;51777;53.570;9.984;2022-11-04T15:11:13;100477.00;;;13.10;100.00
65190;BME280;51777;53.570;9.984;2022-11-04T15:16:28;100472.16;;;12.99;100.00
65190;BME280;51777;53.570;9.984;2022-11-04T15:18:56;100475.75;;;12.89;100.00
65190;BME280;51777;53.570;9.984;2022-11-04T15:21:22;100486.16;;;12.81;100.00
65190;BME280;51777;53.570;9.984;2022-11-04T15:23:50;100486.22;;;12.65;100.00
65190;BME280;51777;53.570;9.984;2022-11-04T15:26:30;100486.22;;;12.57;100.00
65190;BME280;51777;53.570;9.984;2022-11-04T15:28:58;100486.72;;;12.44;100.00
65190;BME280;51777;53.570;9.984;2022-11-04T15:31:29;100492.06;;;12.34;100.00
65190;BME280;51777;53.570;9.984;2022-11-04T15:33:57;100492.22;;;12.33;100.00
65190;BME280;51777;53.570;9.984;2022-11-04T15:36:29;100504.72;;;12.29;100.00